^^
Your Local Weather - Clay, NY Station Historical Data
Daily Summary for August 20, 2017 Units:  English    Metric   Both
« Previous Day
Next Day »
Daily Weekly Monthly Yearly Custom
  High: Low: Average:
Temperature: 80.4 °F 61.9 °F 69.9 °F
Dew Point: 66.6 °F 59.1 °F 61.9 °F
Humidity: 93% 52% 77%
Wind Speed: 3.0mph 0.0mph 0.8mph
Wind Gust: 11.0mph - -
Wind- - West
Pressure: 30.08 in 29.86 in -
Precipitation: 0.01 in    
Historical Graphs
 
 
Tabular Data for August 20, 2017
Time Temperature Dew Point Pressure Wind Wind Speed Wind Gust Humidity Rainfall Rate (Hourly) solar
00:04 67.1 °F 60.4 °F 29.86 in Calm   1.0 mph 79% 0.00 in 0 W/m2
00:10 67.0 °F 60.3 °F 29.86 in Calm     79% 0.00 in 0 W/m2
00:16 66.9 °F 60.2 °F 29.86 in Calm     79% 0.00 in 0 W/m2
00:22 66.8 °F 60.1 °F 29.86 in WNW 1.0 mph 1.0 mph 79% 0.00 in 0 W/m2
00:28 66.7 °F 60.3 °F 29.87 in West 2.0 mph 2.0 mph 80% 0.00 in 0 W/m2
00:34 66.6 °F 60.2 °F 29.87 in WSW 1.0 mph 3.0 mph 80% 0.00 in 0 W/m2
00:38 66.5 °F 60.1 °F 29.87 in WSW 1.0 mph 3.0 mph 80% 0.00 in 0 W/m2
00:44 66.4 °F 60.0 °F 29.88 in WSW 1.0 mph 1.0 mph 80% 0.00 in 0 W/m2
00:50 66.3 °F 60.3 °F 29.88 in WSW 1.0 mph 1.0 mph 81% 0.00 in 0 W/m2
00:56 66.4 °F 60.4 °F 29.88 in WSW 2.0 mph 2.0 mph 81% 0.00 in 0 W/m2
01:03 66.3 °F 60.3 °F 29.88 in WSW 1.0 mph 1.0 mph 81% 0.00 in 0 W/m2
01:08 66.2 °F 60.2 °F 29.88 in WSW 1.0 mph 2.0 mph 81% 0.00 in 0 W/m2
01:14 66.3 °F 60.3 °F 29.88 in SW 2.0 mph 4.0 mph 81% 0.00 in 0 W/m2
01:20 66.4 °F 60.4 °F 29.88 in WSW 3.0 mph 3.0 mph 81% 0.00 in 0 W/m2
01:26 66.5 °F 60.5 °F 29.88 in WSW 3.0 mph 3.0 mph 81% 0.00 in 0 W/m2
01:32 66.4 °F 60.7 °F 29.88 in WSW 1.0 mph 2.0 mph 82% 0.00 in 0 W/m2
01:38 66.3 °F 60.6 °F 29.88 in Calm   2.0 mph 82% 0.00 in 0 W/m2
01:44 66.2 °F 60.9 °F 29.88 in West 1.0 mph 2.0 mph 83% 0.00 in 0 W/m2
01:50 66.1 °F 60.8 °F 29.88 in West 1.0 mph 1.0 mph 83% 0.00 in 0 W/m2
01:56 66.1 °F 60.8 °F 29.88 in WNW 1.0 mph 1.0 mph 83% 0.00 in 0 W/m2
02:04 66.0 °F 60.7 °F 29.88 in WSW 1.0 mph 1.0 mph 83% 0.00 in 0 W/m2
02:10 65.9 °F 60.6 °F 29.88 in WSW 1.0 mph 1.0 mph 83% 0.00 in 0 W/m2
02:16 65.9 °F 60.6 °F 29.88 in WNW 1.0 mph 1.0 mph 83% 0.00 in 0 W/m2
02:22 65.7 °F 60.7 °F 29.89 in WNW 1.0 mph 1.0 mph 84% 0.00 in 0 W/m2
02:28 65.5 °F 60.5 °F 29.89 in West 1.0 mph 2.0 mph 84% 0.00 in 0 W/m2
02:34 65.4 °F 60.8 °F 29.89 in WSW 1.0 mph 1.0 mph 85% 0.00 in 0 W/m2
02:40 65.0 °F 60.7 °F 29.89 in West 2.0 mph 2.0 mph 86% 0.00 in 0 W/m2
02:46 64.4 °F 60.8 °F 29.89 in WNW 2.0 mph 2.0 mph 88% 0.00 in 0 W/m2
02:52 64.1 °F 60.8 °F 29.89 in West 2.0 mph 3.0 mph 89% 0.00 in 0 W/m2
02:58 64.0 °F 60.7 °F 29.89 in SW 2.0 mph 6.0 mph 89% 0.00 in 0 W/m2
03:04 63.9 °F 60.9 °F 29.89 in WSW 2.0 mph 3.0 mph 90% 0.00 in 0 W/m2
03:10 63.9 °F 60.9 °F 29.89 in WSW 2.0 mph 2.0 mph 90% 0.00 in 0 W/m2
03:16 63.8 °F 61.1 °F 29.89 in SSW 1.0 mph 4.0 mph 91% 0.00 in 0 W/m2
03:22 63.8 °F 61.1 °F 29.89 in WSW 2.0 mph 2.0 mph 91% 0.00 in 0 W/m2
03:28 63.7 °F 61.0 °F 29.89 in WSW 1.0 mph 2.0 mph 91% 0.00 in 0 W/m2
03:34 63.6 °F 60.9 °F 29.90 in SW 1.0 mph 1.0 mph 91% 0.00 in 0 W/m2
03:40 63.6 °F 60.9 °F 29.90 in WSW 1.0 mph 1.0 mph 91% 0.00 in 0 W/m2
03:46 63.6 °F 60.9 °F 29.90 in Calm   1.0 mph 91% 0.00 in 0 W/m2
03:52 63.6 °F 60.9 °F 29.91 in WSW 1.0 mph 1.0 mph 91% 0.00 in 0 W/m2
03:58 63.6 °F 60.9 °F 29.91 in Calm   1.0 mph 91% 0.00 in 0 W/m2
04:04 63.6 °F 60.9 °F 29.91 in WSW 1.0 mph 2.0 mph 91% 0.00 in 0 W/m2
04:10 63.4 °F 60.7 °F 29.92 in WSW 1.0 mph 5.0 mph 91% 0.00 in 0 W/m2
04:16 63.3 °F 60.6 °F 29.92 in Calm   5.0 mph 91% 0.00 in 0 W/m2
04:22 63.2 °F 60.5 °F 29.92 in Calm   1.0 mph 91% 0.00 in 0 W/m2
04:28 63.1 °F 60.4 °F 29.92 in WSW 1.0 mph 2.0 mph 91% 0.00 in 0 W/m2
04:34 62.9 °F 60.2 °F 29.92 in WSW 1.0 mph 1.0 mph 91% 0.00 in 0 W/m2
04:40 62.8 °F 60.1 °F 29.93 in Calm     91% 0.00 in 0 W/m2
04:46 62.6 °F 59.9 °F 29.93 in Calm     91% 0.00 in 0 W/m2
04:52 62.5 °F 60.1 °F 29.93 in Calm     92% 0.00 in 0 W/m2
04:58 62.4 °F 60.0 °F 29.93 in Calm   1.0 mph 92% 0.00 in 0 W/m2
05:04 62.4 °F 60.0 °F 29.93 in Calm     92% 0.00 in 0 W/m2
05:10 62.3 °F 59.9 °F 29.93 in Calm     92% 0.00 in 0 W/m2
05:16 62.3 °F 59.9 °F 29.94 in Calm     92% 0.00 in 0 W/m2
05:22 62.3 °F 59.9 °F 29.94 in Calm     92% 0.00 in 0 W/m2
05:28 62.2 °F 59.8 °F 29.94 in Calm   1.0 mph 92% 0.00 in 0 W/m2
05:34 62.1 °F 59.7 °F 29.94 in West 1.0 mph 2.0 mph 92% 0.00 in 0 W/m2
05:40 62.0 °F 59.6 °F 29.95 in Calm     92% 0.00 in 0 W/m2
05:46 62.0 °F 59.6 °F 29.96 in Calm     92% 0.00 in 0 W/m2
05:52 61.9 °F 59.5 °F 29.96 in Calm   2.0 mph 92% 0.00 in 0 W/m2
05:58 62.0 °F 59.6 °F 29.96 in Calm   2.0 mph 92% 0.00 in 0 W/m2
06:04 62.0 °F 59.6 °F 29.96 in West 1.0 mph 1.0 mph 92% 0.00 in 0 W/m2
06:10 62.1 °F 60.1 °F 29.96 in West 1.0 mph 2.0 mph 93% 0.00 in 0 W/m2
06:16 62.0 °F 59.6 °F 29.97 in West 1.0 mph 2.0 mph 92% 0.00 in 0 W/m2
06:22 62.0 °F 59.6 °F 29.97 in Calm   2.0 mph 92% 0.00 in 5 W/m2
06:28 62.0 °F 59.6 °F 29.97 in Calm   2.0 mph 92% 0.00 in 9 W/m2
06:34 61.9 °F 59.5 °F 29.97 in West 1.0 mph 3.0 mph 92% 0.00 in 9 W/m2
06:40 61.9 °F 59.5 °F 29.98 in West 1.0 mph 1.0 mph 92% 0.00 in 16 W/m2
06:46 61.9 °F 59.5 °F 29.98 in Calm   1.0 mph 92% 0.00 in 28 W/m2
06:52 61.9 °F 59.5 °F 29.98 in Calm     92% 0.00 in 33 W/m2
06:58 62.0 °F 59.6 °F 29.99 in Calm     92% 0.00 in 32 W/m2
07:04 62.1 °F 60.1 °F 29.99 in Calm     93% 0.00 in 47 W/m2
07:10 62.2 °F 59.8 °F 29.99 in SW 1.0 mph 1.0 mph 92% 0.00 in 49 W/m2
07:16 62.3 °F 59.9 °F 29.99 in SW 1.0 mph 1.0 mph 92% 0.00 in 69 W/m2
07:22 62.3 °F 59.9 °F 29.99 in SW 1.0 mph 2.0 mph 92% 0.00 in 93 W/m2
07:28 62.5 °F 60.1 °F 29.99 in SW 1.0 mph 2.0 mph 92% 0.00 in 62 W/m2
07:34 62.7 °F 60.3 °F 30.00 in Calm   1.0 mph 92% 0.00 in 125 W/m2
07:40 62.9 °F 60.5 °F 30.00 in Calm   3.0 mph 92% 0.00 in 146 W/m2
07:46 63.1 °F 60.4 °F 30.00 in WSW 1.0 mph 3.0 mph 91% 0.00 in 158 W/m2
07:52 63.3 °F 60.6 °F 30.00 in SW 2.0 mph 3.0 mph 91% 0.00 in 135 W/m2
07:58 63.6 °F 60.6 °F 30.00 in SW 1.0 mph 5.0 mph 90% 0.00 in 149 W/m2
08:04 63.6 °F 60.6 °F 30.00 in SSW 2.0 mph 3.0 mph 90% 0.00 in 174 W/m2
08:10 64.0 °F 61.0 °F 30.00 in WSW 1.0 mph 2.0 mph 90% 0.00 in 176 W/m2
08:16 64.2 °F 60.9 °F 30.01 in SSW 1.0 mph 2.0 mph 89% 0.00 in 123 W/m2
08:22 64.3 °F 61.0 °F 30.01 in WSW 1.0 mph 1.0 mph 89% 0.00 in 121 W/m2
08:28 64.5 °F 60.9 °F 30.01 in WNW 1.0 mph 3.0 mph 88% 0.00 in 118 W/m2
08:34 64.7 °F 61.1 °F 30.01 in SW 1.0 mph 1.0 mph 88% 0.00 in 121 W/m2
08:40 65.0 °F 61.4 °F 30.01 in WSW 1.0 mph 3.0 mph 88% 0.00 in 153 W/m2
08:46 65.4 °F 61.8 °F 30.01 in SW 1.0 mph 3.0 mph 88% 0.00 in 213 W/m2
08:52 65.7 °F 61.7 °F 30.01 in SW 1.0 mph 2.0 mph 87% 0.00 in 193 W/m2
08:58 66.1 °F 62.1 °F 30.01 in SW 1.0 mph 2.0 mph 87% 0.00 in 149 W/m2
09:04 66.6 °F 62.6 °F 30.01 in SSW 1.0 mph 1.0 mph 87% 0.00 in 121 W/m2
09:10 66.9 °F 62.6 °F 30.01 in Calm     86% 0.00 in 174 W/m2
09:16 67.5 °F 62.8 °F 30.01 in Calm   1.0 mph 85% 0.00 in 186 W/m2
09:22 67.9 °F 62.9 °F 30.01 in Calm     84% 0.00 in 285 W/m2
09:28 68.3 °F 63.3 °F 30.01 in North 1.0 mph 1.0 mph 84% 0.00 in 471 W/m2
09:30 68.4 °F 63.4 °F 30.01 in NNW 1.0 mph 1.0 mph 84% 0.00 in 487 W/m2
09:36 69.0 °F 63.3 °F 30.01 in Calm   3.0 mph 82% 0.00 in 501 W/m2
09:42 69.2 °F 62.8 °F 30.01 in WSW 1.0 mph 1.0 mph 80% 0.00 in 519 W/m2
09:48 69.7 °F 63.3 °F 30.01 in WSW 1.0 mph 4.0 mph 80% 0.00 in 529 W/m2
09:54 70.1 °F 63.3 °F 30.02 in North 1.0 mph 4.0 mph 79% 0.00 in 496 W/m2
10:00 70.6 °F 63.8 °F 30.02 in North 1.0 mph 1.0 mph 79% 0.00 in 587 W/m2
10:06 71.1 °F 63.5 °F 30.02 in SSW 1.0 mph 2.0 mph 77% 0.00 in 596 W/m2
10:12 71.1 °F 63.1 °F 30.02 in NW 1.0 mph 1.0 mph 76% 0.00 in 613 W/m2
10:18 71.9 °F 63.2 °F 30.02 in NNW 1.0 mph 3.0 mph 74% 0.00 in 631 W/m2
10:24 71.9 °F 63.5 °F 30.02 in NW 1.0 mph 3.0 mph 75% 0.00 in 638 W/m2
10:30 72.3 °F 62.0 °F 30.02 in NNW 1.0 mph 1.0 mph 70% 0.00 in 656 W/m2
10:36 72.6 °F 61.8 °F 30.02 in SW 1.0 mph 2.0 mph 69% 0.00 in 652 W/m2
10:42 72.6 °F 63.1 °F 30.02 in West 1.0 mph 1.0 mph 72% 0.00 in 661 W/m2
10:48 73.7 °F 63.7 °F 30.02 in Calm   1.0 mph 71% 0.00 in 680 W/m2
10:54 73.7 °F 63.3 °F 30.02 in Calm   1.0 mph 70% 0.00 in 708 W/m2
11:00 73.6 °F 63.6 °F 30.02 in Calm     71% 0.00 in 737 W/m2
11:06 74.5 °F 62.8 °F 30.02 in NNE 1.0 mph 2.0 mph 67% 0.00 in 719 W/m2
11:12 74.1 °F 62.0 °F 30.03 in North 1.0 mph 2.0 mph 66% 0.00 in 731 W/m2
11:18 73.9 °F 61.4 °F 30.03 in SW 1.0 mph 4.0 mph 65% 0.00 in 772 W/m2
11:24 73.4 °F 62.2 °F 30.03 in WSW 1.0 mph 1.0 mph 68% 0.00 in 759 W/m2
11:30 74.5 °F 62.0 °F 30.03 in NNW 1.0 mph 1.0 mph 65% 0.00 in 761 W/m2
11:36 74.2 °F 60.8 °F 30.03 in NW 1.0 mph 5.0 mph 63% 0.00 in 772 W/m2
11:42 74.6 °F 61.2 °F 30.03 in SW 1.0 mph 1.0 mph 63% 0.00 in 768 W/m2
11:48 74.0 °F 60.2 °F 30.03 in SW 3.0 mph 5.0 mph 62% 0.00 in 784 W/m2
11:54 74.7 °F 61.7 °F 30.03 in NW 3.0 mph 3.0 mph 64% 0.00 in 788 W/m2
12:00 75.0 °F 62.9 °F 30.03 in WNW 1.0 mph 1.0 mph 66% 0.00 in 805 W/m2
12:06 76.0 °F 63.4 °F 30.04 in NW 1.0 mph 2.0 mph 65% 0.00 in 809 W/m2
12:12 75.1 °F 61.2 °F 30.04 in West 2.0 mph 11.0 mph 62% 0.00 in 810 W/m2
12:18 75.3 °F 61.4 °F 30.04 in WNW 3.0 mph 11.0 mph 62% 0.00 in 807 W/m2
12:24 75.7 °F 61.3 °F 30.04 in WSW 2.0 mph 3.0 mph 61% 0.00 in 805 W/m2
12:30 75.7 °F 60.8 °F 30.04 in SSW 2.0 mph 4.0 mph 60% 0.00 in 812 W/m2
12:36 76.1 °F 61.2 °F 30.04 in West 2.0 mph 6.0 mph 60% 0.00 in 821 W/m2
12:42 76.6 °F 61.2 °F 30.04 in NNW 1.0 mph 5.0 mph 59% 0.00 in 828 W/m2
12:48 76.6 °F 63.1 °F 30.04 in SW 2.0 mph 5.0 mph 63% 0.00 in 828 W/m2
12:54 76.3 °F 61.9 °F 30.04 in SW 1.0 mph 3.0 mph 61% 0.00 in 826 W/m2
13:00 77.1 °F 61.7 °F 30.04 in West 1.0 mph 1.0 mph 59% 0.00 in 831 W/m2
13:06 76.5 °F 59.1 °F 30.04 in NNW 2.0 mph 3.0 mph 55% 0.00 in 830 W/m2
13:12 76.8 °F 59.9 °F 30.03 in NNW 1.0 mph 2.0 mph 56% 0.00 in 821 W/m2
13:18 77.2 °F 60.3 °F 30.03 in SW 1.0 mph 4.0 mph 56% 0.00 in 823 W/m2
13:24 77.1 °F 61.2 °F 30.03 in WSW 2.0 mph 4.0 mph 58% 0.00 in 835 W/m2
13:30 77.1 °F 61.7 °F 30.03 in NW 2.0 mph 2.0 mph 59% 0.00 in 896 W/m2
13:36 77.2 °F 60.3 °F 30.03 in West 2.0 mph 4.0 mph 56% 0.00 in 830 W/m2
13:42 77.1 °F 60.7 °F 30.03 in WSW 2.0 mph 5.0 mph 57% 0.00 in 828 W/m2
13:48 78.0 °F 66.6 °F 30.03 in West 2.0 mph 5.0 mph 68% 0.00 in 823 W/m2
13:54 78.2 °F 60.7 °F 30.03 in WSW 1.0 mph 3.0 mph 55% 0.00 in 837 W/m2
14:00 77.9 °F 61.4 °F 30.03 in WSW 1.0 mph 1.0 mph 57% 0.00 in 323 W/m2
14:06 78.0 °F 63.0 °F 30.03 in NW 1.0 mph 2.0 mph 60% 0.00 in 821 W/m2
14:12 78.2 °F 61.7 °F 30.03 in NNW 2.0 mph 3.0 mph 57% 0.00 in 812 W/m2
14:18 78.2 °F 62.2 °F 30.03 in NW 2.0 mph 3.0 mph 58% 0.00 in 800 W/m2
14:24 78.3 °F 64.2 °F 30.03 in WSW 2.0 mph 3.0 mph 62% 0.00 in 817 W/m2
14:30 78.9 °F 61.9 °F 30.03 in WSW 1.0 mph 2.0 mph 56% 0.00 in 817 W/m2
14:36 79.4 °F 62.8 °F 30.03 in SW 2.0 mph 3.0 mph 57% 0.00 in 803 W/m2
14:42 78.6 °F 63.1 °F 30.03 in SW 2.0 mph 2.0 mph 59% 0.00 in 824 W/m2
14:54 79.0 °F 63.9 °F 30.02 in SW 1.0 mph 1.0 mph 60% 0.00 in 248 W/m2
15:00 79.2 °F 60.1 °F 30.02 in NNW 1.0 mph 1.0 mph 52% 0.00 in 751 W/m2
15:06 79.0 °F 61.5 °F 30.02 in WNW 2.0 mph 7.0 mph 55% 0.00 in 729 W/m2
15:12 79.0 °F 63.0 °F 30.02 in SW 2.0 mph 2.0 mph 58% 0.00 in 751 W/m2
15:18 78.9 °F 61.4 °F 30.02 in SW 2.0 mph 3.0 mph 55% 0.00 in 744 W/m2
15:24 79.8 °F 63.2 °F 30.02 in WNW 3.0 mph 3.0 mph 57% 0.00 in 731 W/m2
15:30 79.5 °F 61.9 °F 30.02 in WNW 2.0 mph 2.0 mph 55% 0.00 in 239 W/m2
15:36 79.4 °F 63.3 °F 30.02 in NW 1.0 mph 2.0 mph 58% 0.00 in 689 W/m2
15:42 79.9 °F 63.8 °F 30.02 in NW 1.0 mph 1.0 mph 58% 0.00 in 696 W/m2
15:48 80.1 °F 64.0 °F 30.02 in NNW 2.0 mph 4.0 mph 58% 0.00 in 636 W/m2
15:54 80.4 °F 64.3 °F 30.02 in NE 2.0 mph 2.0 mph 58% 0.00 in 636 W/m2
16:00 80.1 °F 64.0 °F 30.02 in NNW 2.0 mph 4.0 mph 58% 0.00 in 587 W/m2
16:06 79.4 °F 64.3 °F 30.01 in NNW 1.0 mph 4.0 mph 60% 0.00 in 288 W/m2
16:12 79.7 °F 63.6 °F 30.01 in NNE 1.0 mph 6.0 mph 58% 0.00 in 577 W/m2
16:18 80.1 °F 63.5 °F 30.01 in SW 1.0 mph 6.0 mph 57% 0.00 in 582 W/m2
16:24 79.8 °F 62.7 °F 30.02 in NW 1.0 mph 4.0 mph 56% 0.00 in 575 W/m2
16:30 78.8 °F 63.3 °F 30.01 in NW 2.0 mph 2.0 mph 59% 0.00 in 534 W/m2
16:36 78.6 °F 61.6 °F 30.01 in North 1.0 mph 3.0 mph 56% 0.00 in 538 W/m2
16:42 79.5 °F 62.4 °F 30.01 in NW 2.0 mph 2.0 mph 56% 0.00 in 480 W/m2
16:48 79.8 °F 62.2 °F 30.00 in NNW 1.0 mph 2.0 mph 55% 0.00 in 475 W/m2
16:54 79.9 °F 62.3 °F 30.00 in North 2.0 mph 5.0 mph 55% 0.00 in 452 W/m2
17:00 79.8 °F 62.7 °F 30.00 in NNW 1.0 mph 1.0 mph 56% 0.00 in 431 W/m2
17:06 80.2 °F 61.5 °F 30.00 in NNW 1.0 mph 4.0 mph 53% 0.00 in 408 W/m2
17:12 79.8 °F 61.7 °F 30.01 in North 1.0 mph 2.0 mph 54% 0.00 in 399 W/m2
17:18 79.7 °F 62.6 °F 30.00 in SSW 1.0 mph 3.0 mph 56% 0.00 in 221 W/m2
17:24 79.7 °F 62.6 °F 30.01 in NW 1.0 mph 3.0 mph 56% 0.00 in 279 W/m2
17:30 79.3 °F 63.2 °F 30.00 in NNW 1.0 mph 1.0 mph 58% 0.00 in 121 W/m2
17:36 79.1 °F 63.1 °F 30.00 in NNW 1.0 mph 1.0 mph 58% 0.00 in 81 W/m2
17:42 79.1 °F 63.1 °F 30.00 in NW 1.0 mph 1.0 mph 58% 0.00 in 132 W/m2
17:48 79.0 °F 63.4 °F 30.00 in NW 1.0 mph 2.0 mph 59% 0.00 in 86 W/m2
17:54 78.9 °F 62.9 °F 30.00 in NW 1.0 mph 3.0 mph 58% 0.00 in 70 W/m2
18:00 78.6 °F 63.1 °F 30.01 in NW 1.0 mph 1.0 mph 59% 0.00 in 90 W/m2
18:06 78.5 °F 63.5 °F 30.01 in WSW 1.0 mph 2.0 mph 60% 0.00 in 62 W/m2
18:12 78.2 °F 64.1 °F 30.01 in North 1.0 mph 1.0 mph 62% 0.00 in 58 W/m2
18:18 78.0 °F 63.9 °F 30.00 in NNW 1.0 mph 2.0 mph 62% 0.00 in 53 W/m2
18:24 77.8 °F 63.7 °F 30.00 in Calm   1.0 mph 62% 0.00 in 51 W/m2
18:30 77.6 °F 63.5 °F 30.00 in NNW 1.0 mph 1.0 mph 62% 0.00 in 47 W/m2
18:36 77.5 °F 63.9 °F 30.01 in NNW 1.0 mph 2.0 mph 63% 0.00 in 46 W/m2
18:42 77.2 °F 63.6 °F 30.01 in NNW 1.0 mph 1.0 mph 63% 0.00 in 44 W/m2
18:48 77.1 °F 64.0 °F 30.01 in NNW 1.0 mph 1.0 mph 64% 0.00 in 40 W/m2
18:54 76.9 °F 64.2 °F 30.01 in Calm   1.0 mph 65% 0.00 in 37 W/m2
19:00 76.7 °F 64.5 °F 30.01 in Calm     66% 0.00 in 35 W/m2
19:06 76.4 °F 65.1 °F 30.01 in Calm     68% 0.00 in 32 W/m2
19:12 76.1 °F 64.8 °F 30.01 in Calm     68% 0.00 in 28 W/m2
19:18 75.7 °F 65.2 °F 30.02 in Calm     70% 0.00 in 25 W/m2
19:24 75.3 °F 66.0 °F 30.02 in Calm     73% 0.00 in 21 W/m2
19:30 74.8 °F 66.0 °F 30.02 in Calm     74% 0.00 in 18 W/m2
19:36 73.9 °F 65.5 °F 30.02 in Calm     75% 0.00 in 14 W/m2
19:42 73.2 °F 65.2 °F 30.02 in Calm     76% 0.00 in 11 W/m2
19:48 72.3 °F 64.7 °F 30.02 in Calm     77% 0.00 in 7 W/m2
19:54 71.7 °F 64.1 °F 30.02 in Calm     77% 0.00 in 5 W/m2
20:00 71.2 °F 64.0 °F 30.02 in Calm     78% 0.00 in 0 W/m2
20:06 70.7 °F 63.9 °F 30.02 in Calm     79% 0.00 in 0 W/m2
20:12 70.3 °F 64.2 °F 30.02 in Calm     81% 0.00 in 0 W/m2
20:18 70.0 °F 64.6 °F 30.03 in Calm     83% 0.00 in 0 W/m2
20:24 69.6 °F 64.2 °F 30.03 in Calm     83% 0.00 in 0 W/m2
20:30 69.2 °F 63.8 °F 30.03 in Calm     83% 0.00 in 0 W/m2
20:36 68.8 °F 63.8 °F 30.03 in Calm     84% 0.00 in 0 W/m2
20:42 68.4 °F 63.7 °F 30.04 in Calm     85% 0.00 in 0 W/m2
20:48 68.1 °F 63.8 °F 30.04 in Calm     86% 0.00 in 0 W/m2
20:54 67.9 °F 63.6 °F 30.04 in Calm     86% 0.00 in 0 W/m2
21:00 67.7 °F 63.4 °F 30.05 in Calm     86% 0.00 in 0 W/m2
21:06 67.4 °F 63.4 °F 30.05 in Calm     87% 0.00 in 0 W/m2
21:12 67.1 °F 63.1 °F 30.05 in Calm     87% 0.00 in 0 W/m2
21:18 66.9 °F 62.9 °F 30.05 in Calm     87% 0.00 in 0 W/m2
21:24 66.7 °F 62.7 °F 30.06 in Calm     87% 0.00 in 0 W/m2
21:30 66.4 °F 62.7 °F 30.06 in Calm     88% 0.00 in 0 W/m2
21:36 66.3 °F 62.6 °F 30.06 in Calm     88% 0.00 in 0 W/m2
21:42 66.1 °F 62.4 °F 30.06 in Calm     88% 0.00 in 0 W/m2
21:48 65.9 °F 62.2 °F 30.06 in Calm     88% 0.00 in 0 W/m2
21:54 65.7 °F 62.4 °F 30.06 in Calm     89% 0.00 in 0 W/m2
22:00 65.6 °F 62.3 °F 30.07 in Calm     89% 0.00 in 0 W/m2
22:06 65.5 °F 62.2 °F 30.06 in Calm     89% 0.00 in 0 W/m2
22:12 65.3 °F 62.0 °F 30.06 in Calm     89% 0.00 in 0 W/m2
22:18 65.2 °F 62.2 °F 30.06 in Calm     90% 0.00 in 0 W/m2
22:24 65.1 °F 62.1 °F 30.07 in Calm     90% 0.00 in 0 W/m2
22:30 65.1 °F 62.1 °F 30.07 in Calm     90% 0.00 in 0 W/m2
22:36 65.0 °F 62.0 °F 30.07 in Calm     90% 0.00 in 0 W/m2
22:42 64.9 °F 61.9 °F 30.07 in Calm     90% 0.00 in 0 W/m2
22:48 64.8 °F 61.8 °F 30.07 in Calm     90% 0.00 in 0 W/m2
22:54 64.7 °F 61.7 °F 30.07 in Calm     90% 0.00 in 0 W/m2
23:00 64.6 °F 61.9 °F 30.07 in Calm     91% 0.00 in 0 W/m2
23:06 64.6 °F 61.9 °F 30.07 in Calm     91% 0.00 in 0 W/m2
23:12 64.4 °F 61.7 °F 30.07 in Calm     91% 0.00 in 0 W/m2
23:18 64.3 °F 61.6 °F 30.07 in Calm     91% 0.00 in 0 W/m2
23:24 64.3 °F 61.6 °F 30.08 in Calm     91% 0.00 in 0 W/m2
23:30 64.1 °F 61.4 °F 30.08 in Calm     91% 0.00 in 0 W/m2
23:36 64.0 °F 61.3 °F 30.08 in Calm     91% 0.00 in 0 W/m2
23:42 63.8 °F 61.1 °F 30.08 in Calm     91% 0.00 in 0 W/m2
23:48 63.8 °F 61.1 °F 30.08 in Calm     91% 0.00 in 0 W/m2
23:54 63.7 °F 61.0 °F 30.08 in Calm     91% 0.00 in 0 W/m2
Country Meadow, Clay, NY, USA
Compliments of Weather Underground - 2 mb